Airfield :
LOGIN :

Register | Disclaimer

   EN    FR    IT 

 










Legend :    VFR   Marginal VFR   IFR   Intensive IFR   Very Intensive IFR
Visi :
Ceiling :
>= 8 km
>= 3000ft
5 to 8 km
1000 to 3000 ft
1500m to 5 km
500 to 1000 ft
800 to 1500m
200 to 500 ft
< 800m
< 200 ft
Symbols :   Thunderstorms  Fog  Heavy snow  Heavy precipitations  Wind > 20 kt
SIGMETs :     Misc.  Thunderstorms  Icing  Turbulence  Mountain Waves  Volcanic Ashes






- Airport Elevation : 1345 ft
- IATA code : FRZ


ETHF - Fritzlar

CURRENT METAR :
  • 151820Z 30006KT 9999 SCT019 BKN030 18/14 Q1005 BLU

EXPIRED METARs :
  • 151720Z 30006KT 9999 SCT032 BKN170 18/14 Q1005 BLU
  • 151620Z 33006KT 9999 SCT033 BKN160 20/14 Q1005 BLU

TAF AMD TAF ETHF
Valid from the 15 at 14:00 until the 15 at 23:00 UTC


151436Z 1514/1523 22005KT 9999 NSW FEW030 SCT100 BKN300
TEMPO 1516/1523 29007KT 5000 RA SCT010 BKN020
PROB30 1517/1520 27015G25KT 3000 TSRA SCT007 BKN015CB CANCEL 1500



MET'MAP, your aeronautical weather chart ! - Copyright ORBIFLY December 2007 - Disclaimer

ORBIFLY MET'MAP TEAM :

Programming & Development : Alexandra Zaïnal
Concept & Development : Baudouin d'Aumeries
Co-Development & Prog : Marc-Olivier Méhu
Technical & hardware support : Manuel Goepfert

Contact : metmap@orbifly.com




SOURCES & CREDITS :

   NOAA